Time;durP1;ratioP1;P1;durP2;ratioP2;P2;SDS_P1;SDS_P2;PMS_P1;PMS_P2;Temp;Humidity;BMP_temperature;BMP_pressure;BME280_temperature;BME280_humidity;BME280_pressure;Samples;Min_cycle;Max_cycle;Signal;HPM_P1;HPM_P2
2021/11/06 00:02:21;;;;;;;15.67;10.07;;;8.30;99.90;;;;;;5115643;28;20936;-68
2021/11/06 00:04:47;;;;;;;12.97;9.67;;;8.30;99.90;;;;;;5115867;28;20940;-68
2021/11/06 00:07:14;;;;;;;11.10;8.77;;;8.20;99.90;;;;;;5115835;28;20498;-68
2021/11/06 00:09:41;;;;;;;13.97;8.67;;;8.30;99.90;;;;;;5115987;28;20493;-68
2021/11/06 00:12:10;;;;;;;13.03;8.80;;;8.20;99.90;;;;;;5116325;28;20456;-68
2021/11/06 00:14:37;;;;;;;14.07;8.60;;;8.20;99.90;;;;;;5118218;28;20455;-68
2021/11/06 00:17:04;;;;;;;13.40;8.73;;;8.20;99.90;;;;;;5116914;28;20948;-68
2021/11/06 00:19:30;;;;;;;14.70;8.53;;;8.20;99.90;;;;;;5117002;28;20447;-68
2021/11/06 00:21:57;;;;;;;15.93;9.07;;;8.20;99.90;;;;;;5116083;28;20460;-68
2021/11/06 00:24:24;;;;;;;13.07;9.80;;;8.30;99.90;;;;;;5115706;28;20939;-68
2021/11/06 00:26:50;;;;;;;13.07;9.60;;;8.30;99.90;;;;;;5116291;28;20524;-68
2021/11/06 00:29:20;;;;;;;14.67;8.80;;;8.30;99.90;;;;;;5115905;28;20479;-68
2021/11/06 00:31:47;;;;;;;12.30;9.33;;;8.30;99.90;;;;;;5115548;28;20926;-68
2021/11/06 00:34:15;;;;;;;14.57;9.60;;;8.30;99.90;;;;;;5115702;28;20454;-68
2021/11/06 00:36:42;;;;;;;15.50;10.47;;;8.30;99.90;;;;;;5115660;27;20459;-68
2021/11/06 00:39:09;;;;;;;13.93;9.57;;;8.40;99.90;;;;;;5116377;28;20524;-68
2021/11/06 00:41:35;;;;;;;13.63;9.57;;;8.40;99.90;;;;;;5116553;28;20458;-67
2021/11/06 00:44:02;;;;;;;17.20;9.20;;;8.40;99.90;;;;;;5116785;28;20983;-67
2021/11/06 00:46:30;;;;;;;19.10;10.83;;;8.40;99.90;;;;;;5116267;28;20831;-69
2021/11/06 00:48:57;;;;;;;18.03;10.40;;;8.40;99.90;;;;;;5116724;28;20475;-67
2021/11/06 00:51:24;;;;;;;13.20;9.27;;;8.40;99.90;;;;;;5116594;28;20455;-70
2021/11/06 00:53:50;;;;;;;13.30;8.90;;;8.40;99.90;;;;;;5117109;27;20458;-69
2021/11/06 00:56:17;;;;;;;12.20;9.47;;;8.40;99.90;;;;;;5117208;28;20458;-68
2021/11/06 00:58:44;;;;;;;12.13;9.73;;;8.40;99.90;;;;;;5117355;28;20935;-69
2021/11/06 01:01:11;;;;;;;14.10;8.70;;;8.40;99.90;;;;;;5115708;28;20459;-70
2021/11/06 01:03:39;;;;;;;12.10;10.03;;;8.40;99.90;;;;;;5115180;28;20456;-69
2021/11/06 01:06:05;;;;;;;17.83;10.27;;;8.40;99.90;;;;;;5114935;28;20517;-69
2021/11/06 01:08:32;;;;;;;14.10;8.10;;;8.40;99.90;;;;;;5114900;28;20593;-70
2021/11/06 01:10:59;;;;;;;17.73;10.77;;;8.40;99.90;;;;;;5115000;28;20521;-69
2021/11/06 01:13:26;;;;;;;13.80;10.40;;;8.40;99.90;;;;;;5115096;28;20467;-69
2021/11/06 01:15:52;;;;;;;15.37;9.97;;;8.50;99.90;;;;;;5114797;28;20627;-69
2021/11/06 01:18:19;;;;;;;13.67;8.97;;;8.50;99.90;;;;;;5114884;28;20903;-70
2021/11/06 01:20:47;;;;;;;14.23;9.80;;;8.50;99.90;;;;;;5114690;28;20470;-69
2021/11/06 01:23:13;;;;;;;17.00;9.60;;;8.60;99.90;;;;;;5115307;28;20458;-69
2021/11/06 01:25:40;;;;;;;16.03;10.90;;;8.60;99.90;;;;;;5115031;28;20465;-68
2021/11/06 01:28:07;;;;;;;17.70;9.90;;;8.60;99.90;;;;;;5114639;28;20543;-69
2021/11/06 01:30:34;;;;;;;15.20;9.60;;;8.60;99.90;;;;;;5114334;28;20467;-71
2021/11/06 01:33:00;;;;;;;15.03;10.53;;;8.60;99.90;;;;;;5114706;28;20460;-69
2021/11/06 01:35:27;;;;;;;17.60;9.60;;;8.60;99.90;;;;;;5114581;28;20912;-69
2021/11/06 01:37:58;;;;;;;15.13;10.47;;;8.60;99.90;;;;;;5114690;28;20823;-69
2021/11/06 01:40:26;;;;;;;18.83;10.87;;;8.60;99.90;;;;;;5114664;28;20440;-69
2021/11/06 01:42:52;;;;;;;18.33;9.37;;;8.60;99.90;;;;;;5114809;28;20465;-69
2021/11/06 01:45:22;;;;;;;16.53;8.83;;;8.60;99.90;;;;;;5114601;28;20460;-69
2021/11/06 01:47:50;;;;;;;16.73;9.57;;;8.70;99.90;;;;;;5114789;28;20456;-69
2021/11/06 01:50:19;;;;;;;14.50;8.17;;;8.70;99.90;;;;;;5114281;28;20939;-69
2021/11/06 01:52:48;;;;;;;12.63;9.40;;;8.70;99.90;;;;;;5114301;28;20461;-67
2021/11/06 01:55:20;;;;;;;16.37;9.10;;;8.70;99.90;;;;;;5114733;28;20459;-69
2021/11/06 01:57:48;;;;;;;15.47;9.17;;;8.70;99.90;;;;;;5116260;28;20892;-69
2021/11/06 02:00:22;;;;;;;15.13;9.00;;;8.80;99.90;;;;;;5118143;28;20862;-67
2021/11/06 02:02:48;;;;;;;13.20;7.60;;;8.80;99.90;;;;;;5118508;28;20447;-69
2021/11/06 02:05:16;;;;;;;15.93;8.03;;;8.80;99.90;;;;;;5118115;28;20494;-70
2021/11/06 02:07:42;;;;;;;18.90;10.03;;;8.80;99.90;;;;;;5118504;28;20459;-67
2021/11/06 02:10:10;;;;;;;16.63;9.23;;;8.80;99.90;;;;;;5117729;28;20483;-69
2021/11/06 02:12:39;;;;;;;14.77;9.67;;;8.80;99.90;;;;;;5118356;28;20514;-69
2021/11/06 02:15:08;;;;;;;15.60;8.70;;;8.80;99.90;;;;;;5118150;28;20563;-69
2021/11/06 02:17:35;;;;;;;13.07;9.00;;;8.80;99.90;;;;;;5117689;28;20461;-69
2021/11/06 02:20:02;;;;;;;13.80;9.30;;;8.80;99.90;;;;;;5117837;28;20880;-69
2021/11/06 02:22:33;;;;;;;13.73;8.97;;;8.80;99.90;;;;;;5117907;28;20464;-69
2021/11/06 02:25:00;;;;;;;21.37;9.70;;;8.80;99.90;;;;;;5118092;28;20799;-69
2021/11/06 02:27:26;;;;;;;15.53;10.80;;;8.80;99.90;;;;;;5118238;28;20566;-69
2021/11/06 02:29:53;;;;;;;21.23;9.93;;;8.80;99.90;;;;;;5117751;28;20568;-69
2021/11/06 02:32:20;;;;;;;17.27;9.63;;;8.80;99.90;;;;;;5118107;27;20460;-69
2021/11/06 02:34:47;;;;;;;18.57;9.17;;;8.80;99.90;;;;;;5117542;27;20466;-69
2021/11/06 02:37:14;;;;;;;17.63;8.30;;;8.80;99.90;;;;;;5117876;28;20784;-69
2021/11/06 02:39:41;;;;;;;16.00;9.23;;;8.80;99.90;;;;;;5117731;28;20927;-69
2021/11/06 02:42:10;;;;;;;14.33;9.20;;;8.80;99.90;;;;;;5117382;28;20993;-69
2021/11/06 02:44:37;;;;;;;18.70;9.80;;;8.70;99.90;;;;;;5117773;28;20468;-69
2021/11/06 02:47:05;;;;;;;18.67;10.20;;;8.80;99.90;;;;;;5117390;28;20471;-70
2021/11/06 02:49:32;;;;;;;14.83;8.83;;;8.70;99.90;;;;;;5117341;28;20483;-68
2021/11/06 02:51:59;;;;;;;13.90;7.83;;;8.70;99.90;;;;;;5117559;28;20796;-68
2021/11/06 02:54:26;;;;;;;15.50;8.60;;;8.70;99.90;;;;;;5117424;28;20463;-68
2021/11/06 02:56:54;;;;;;;15.47;9.63;;;8.70;99.90;;;;;;5117587;28;20652;-70
2021/11/06 02:59:21;;;;;;;18.83;9.53;;;8.70;99.90;;;;;;5117271;28;20485;-69
2021/11/06 03:01:48;;;;;;;13.60;8.20;;;8.70;99.90;;;;;;5117410;27;20464;-68
2021/11/06 03:04:18;;;;;;;19.23;10.10;;;8.70;99.90;;;;;;5118081;28;20465;-68
2021/11/06 03:06:45;;;;;;;18.53;8.80;;;8.70;99.90;;;;;;5116775;28;20836;-67
2021/11/06 03:09:13;;;;;;;19.93;9.70;;;8.70;99.90;;;;;;5116760;27;20774;-69
2021/11/06 03:11:40;;;;;;;21.17;10.40;;;8.70;99.90;;;;;;5116914;28;20467;-68
2021/11/06 03:14:10;;;;;;;19.93;10.47;;;8.70;99.90;;;;;;5117335;28;20460;-68
2021/11/06 03:16:38;;;;;;;16.43;10.30;;;8.70;99.90;;;;;;5117003;28;20543;-68
2021/11/06 03:19:05;;;;;;;19.43;9.47;;;8.70;99.90;;;;;;5117037;28;20476;-68
2021/11/06 03:21:32;;;;;;;14.57;8.43;;;8.70;99.90;;;;;;5116840;28;20453;-67
2021/11/06 03:23:59;;;;;;;20.70;9.40;;;8.80;99.90;;;;;;5116927;28;20509;-67
2021/11/06 03:26:25;;;;;;;18.23;10.50;;;8.70;99.90;;;;;;5116849;27;20456;-68
2021/11/06 03:28:52;;;;;;;13.47;8.20;;;8.80;99.90;;;;;;5116615;28;20815;-69
2021/11/06 03:31:20;;;;;;;16.93;9.77;;;8.80;99.90;;;;;;5117018;28;20532;-68
2021/11/06 03:33:47;;;;;;;14.23;9.00;;;8.80;99.90;;;;;;5116607;28;20460;-68
2021/11/06 03:36:14;;;;;;;14.13;8.30;;;8.80;99.90;;;;;;5116470;27;20463;-68
2021/11/06 03:38:41;;;;;;;20.57;10.30;;;8.90;99.90;;;;;;5116489;28;20462;-69
2021/11/06 03:41:07;;;;;;;16.77;10.33;;;8.90;99.90;;;;;;5116430;28;20464;-68
2021/11/06 03:43:34;;;;;;;16.00;10.03;;;8.90;99.90;;;;;;5116235;28;20472;-68
2021/11/06 03:46:01;;;;;;;15.70;8.13;;;8.90;99.90;;;;;;5115859;27;20512;-68
2021/11/06 03:48:29;;;;;;;18.13;8.90;;;8.90;99.90;;;;;;5116377;28;20459;-68
2021/11/06 03:50:56;;;;;;;19.77;9.83;;;8.80;99.90;;;;;;5116310;28;20540;-68
2021/11/06 03:53:24;;;;;;;17.03;9.60;;;8.80;99.90;;;;;;5116165;28;20455;-68
2021/11/06 03:55:51;;;;;;;19.80;8.30;;;8.80;99.90;;;;;;5115921;28;20495;-69
2021/11/06 03:58:18;;;;;;;20.50;9.17;;;8.80;99.90;;;;;;5116520;28;20453;-68
2021/11/06 04:00:44;;;;;;;18.07;9.40;;;8.80;99.90;;;;;;5115787;28;20454;-68
2021/11/06 04:03:11;;;;;;;15.73;9.30;;;8.80;99.90;;;;;;5116178;28;20519;-68
2021/11/06 04:05:39;;;;;;;15.70;9.43;;;8.80;99.90;;;;;;5115730;28;20801;-68
2021/11/06 04:08:06;;;;;;;16.70;9.50;;;8.80;99.90;;;;;;5115886;27;20444;-68
2021/11/06 04:10:33;;;;;;;13.60;8.90;;;8.80;99.90;;;;;;5115894;28;20480;-68
2021/11/06 04:13:00;;;;;;;14.30;8.03;;;8.80;99.90;;;;;;5115417;28;20513;-69
2021/11/06 04:15:26;;;;;;;15.03;8.50;;;8.80;99.90;;;;;;5115903;28;20463;-68
2021/11/06 04:17:53;;;;;;;17.67;8.43;;;8.80;99.90;;;;;;5115839;28;20519;-69
2021/11/06 04:20:20;;;;;;;14.97;7.97;;;8.90;99.90;;;;;;5115012;28;20450;-69
2021/11/06 04:22:50;;;;;;;13.83;7.70;;;8.90;99.90;;;;;;5115652;28;20827;-69
2021/11/06 04:25:18;;;;;;;17.63;8.60;;;8.80;99.90;;;;;;5115787;28;20466;-69
2021/11/06 04:27:44;;;;;;;13.37;8.30;;;8.80;99.90;;;;;;5115159;28;20543;-69
2021/11/06 04:30:11;;;;;;;17.53;7.97;;;8.80;99.90;;;;;;5115373;27;20487;-69
2021/11/06 04:32:38;;;;;;;19.07;9.30;;;8.80;99.90;;;;;;5115330;28;20897;-69
2021/11/06 04:35:06;;;;;;;14.50;7.77;;;8.80;99.90;;;;;;5114937;28;20936;-69
2021/11/06 04:37:33;;;;;;;15.00;7.40;;;8.90;99.90;;;;;;5115644;28;20464;-69
2021/11/06 04:40:01;;;;;;;12.17;7.37;;;8.90;99.90;;;;;;5115591;28;20463;-69
2021/11/06 04:42:27;;;;;;;11.13;7.20;;;8.90;99.90;;;;;;5115270;28;20464;-68
2021/11/06 04:44:54;;;;;;;15.23;6.73;;;8.90;99.90;;;;;;5115250;28;20559;-68
2021/11/06 04:47:21;;;;;;;13.10;6.77;;;8.90;99.90;;;;;;5115420;28;20464;-68
2021/11/06 04:49:47;;;;;;;13.27;7.07;;;8.90;99.90;;;;;;5115253;28;20477;-69
2021/11/06 04:52:14;;;;;;;11.63;5.60;;;8.90;99.90;;;;;;5115344;28;20457;-69
2021/11/06 04:54:41;;;;;;;12.17;6.57;;;9.00;99.90;;;;;;5115110;28;20449;-69
2021/11/06 04:57:09;;;;;;;11.33;6.50;;;9.00;99.90;;;;;;5115200;28;20514;-69
2021/11/06 04:59:36;;;;;;;10.03;5.67;;;9.00;99.90;;;;;;5115628;28;20464;-69
2021/11/06 05:02:03;;;;;;;11.63;5.27;;;9.00;99.90;;;;;;5115373;28;20514;-69
2021/11/06 05:04:30;;;;;;;9.67;5.40;;;9.00;99.90;;;;;;5115271;28;20785;-68
2021/11/06 05:06:57;;;;;;;8.63;4.90;;;9.00;99.90;;;;;;5114808;28;20480;-69
2021/11/06 05:09:24;;;;;;;11.10;4.90;;;9.00;99.90;;;;;;5114720;28;20492;-68
2021/11/06 05:11:50;;;;;;;9.60;4.40;;;8.90;99.90;;;;;;5114777;28;20463;-69
2021/11/06 05:14:19;;;;;;;12.17;4.23;;;8.90;99.90;;;;;;5115147;28;20452;-69
2021/11/06 05:16:45;;;;;;;7.80;4.20;;;9.00;99.90;;;;;;5115239;28;20778;-69
2021/11/06 05:19:12;;;;;;;14.63;4.20;;;8.90;99.90;;;;;;5115160;28;20460;-69
2021/11/06 05:21:40;;;;;;;6.33;3.93;;;8.90;99.90;;;;;;5114496;28;20551;-68
2021/11/06 05:24:08;;;;;;;6.37;4.47;;;9.00;99.90;;;;;;5114933;28;20464;-68
2021/11/06 05:26:35;;;;;;;9.13;4.30;;;8.90;99.90;;;;;;5115112;28;20456;-69
2021/11/06 05:29:03;;;;;;;10.00;4.00;;;9.00;99.90;;;;;;5114834;28;20803;-69
2021/11/06 05:31:32;;;;;;;14.27;3.90;;;9.00;99.90;;;;;;5116398;28;20443;-69
2021/11/06 05:34:00;;;;;;;8.10;4.40;;;9.00;99.90;;;;;;5118788;28;20925;-68
2021/11/06 05:36:27;;;;;;;7.30;3.87;;;9.00;99.90;;;;;;5118643;28;20451;-68
2021/11/06 05:38:54;;;;;;;9.17;5.33;;;9.00;99.90;;;;;;5119033;28;20456;-69
2021/11/06 05:41:21;;;;;;;6.37;3.90;;;9.00;99.90;;;;;;5119005;28;20459;-69
2021/11/06 05:43:47;;;;;;;12.93;4.30;;;9.00;99.90;;;;;;5118774;28;20448;-69
2021/11/06 05:46:14;;;;;;;9.17;4.30;;;9.00;99.90;;;;;;5118504;28;20904;-69
2021/11/06 05:48:42;;;;;;;8.53;4.73;;;9.00;99.90;;;;;;5118698;28;20452;-69
2021/11/06 05:51:09;;;;;;;7.90;4.67;;;9.00;99.90;;;;;;5118745;28;20493;-68
2021/11/06 05:53:35;;;;;;;9.33;4.80;;;9.00;99.90;;;;;;5118394;28;20457;-68
2021/11/06 05:56:02;;;;;;;10.97;5.23;;;9.00;99.90;;;;;;5118809;28;20518;-69
2021/11/06 05:58:29;;;;;;;5.60;3.90;;;9.10;99.90;;;;;;5118103;28;20924;-69
2021/11/06 06:00:55;;;;;;;12.10;4.57;;;9.00;99.90;;;;;;5118565;28;20458;-69
2021/11/06 06:03:22;;;;;;;10.80;4.00;;;9.00;99.90;;;;;;5118682;28;20478;-69
2021/11/06 06:05:50;;;;;;;12.20;4.43;;;9.00;99.90;;;;;;5117908;28;20819;-69
2021/11/06 06:08:17;;;;;;;6.80;3.57;;;9.00;99.90;;;;;;5118416;28;20475;-70
2021/11/06 06:10:44;;;;;;;4.87;3.97;;;9.10;99.90;;;;;;5118413;28;20532;-69
2021/11/06 06:13:10;;;;;;;6.87;4.27;;;9.10;99.90;;;;;;5118498;28;20466;-69
2021/11/06 06:15:38;;;;;;;8.73;3.70;;;9.10;99.90;;;;;;5118110;28;20455;-69
2021/11/06 06:18:05;;;;;;;7.20;4.30;;;9.10;99.90;;;;;;5118040;28;20514;-69
2021/11/06 06:20:32;;;;;;;8.17;3.67;;;9.10;99.90;;;;;;5118143;28;20450;-70
2021/11/06 06:23:00;;;;;;;12.33;4.93;;;9.10;99.90;;;;;;5118215;28;20452;-69
2021/11/06 06:25:28;;;;;;;6.90;4.10;;;9.10;99.90;;;;;;5118176;28;20513;-69
2021/11/06 06:27:54;;;;;;;6.37;3.80;;;9.20;99.90;;;;;;5117944;27;20469;-69
2021/11/06 06:30:21;;;;;;;7.80;4.30;;;9.10;99.90;;;;;;5117533;28;20472;-69
2021/11/06 06:32:48;;;;;;;6.70;3.50;;;9.20;99.90;;;;;;5118000;28;20538;-69
2021/11/06 06:35:16;;;;;;;7.93;4.20;;;9.20;99.90;;;;;;5117884;28;20841;-68
2021/11/06 06:37:43;;;;;;;12.03;4.40;;;9.20;99.90;;;;;;5117984;27;20467;-69
2021/11/06 06:40:12;;;;;;;7.70;4.23;;;9.30;99.90;;;;;;5117723;28;20482;-68
2021/11/06 06:42:40;;;;;;;10.60;4.23;;;9.30;99.90;;;;;;5116844;28;20452;-68
2021/11/06 06:45:07;;;;;;;8.80;4.30;;;9.30;99.90;;;;;;5117642;28;20730;-69
2021/11/06 06:47:34;;;;;;;7.97;4.43;;;9.30;99.90;;;;;;5117730;27;20517;-67
2021/11/06 06:50:01;;;;;;;7.50;4.70;;;9.30;99.90;;;;;;5117740;28;20513;-69
2021/11/06 06:52:28;;;;;;;11.80;5.33;;;9.40;99.90;;;;;;5117676;28;20816;-69
2021/11/06 06:54:54;;;;;;;8.43;5.00;;;9.40;99.90;;;;;;5117675;28;20472;-69
2021/11/06 06:57:22;;;;;;;9.77;5.63;;;9.40;99.90;;;;;;5117551;28;20480;-68
2021/11/06 06:59:49;;;;;;;10.10;5.20;;;9.50;99.90;;;;;;5117568;28;20468;-68
2021/11/06 07:02:16;;;;;;;9.67;4.40;;;9.50;99.90;;;;;;5117445;28;20452;-68
2021/11/06 07:04:42;;;;;;;10.33;5.23;;;9.60;99.90;;;;;;5117382;28;20449;-69
2021/11/06 07:07:09;;;;;;;11.70;5.57;;;9.60;99.90;;;;;;5117010;28;20488;-69
2021/11/06 07:09:37;;;;;;;6.83;4.77;;;9.70;99.90;;;;;;5116983;28;20458;-68
2021/11/06 07:12:04;;;;;;;9.13;4.67;;;9.60;99.90;;;;;;5116981;27;20457;-69
2021/11/06 07:14:32;;;;;;;8.30;4.70;;;9.70;99.90;;;;;;5116848;28;20518;-69
2021/11/06 07:16:59;;;;;;;10.10;5.27;;;9.70;99.90;;;;;;5117300;28;20517;-70
2021/11/06 07:19:26;;;;;;;11.70;5.60;;;9.70;99.90;;;;;;5117163;28;20521;-67
2021/11/06 07:21:53;;;;;;;7.10;5.27;;;9.70;99.90;;;;;;5116874;28;20454;-68
2021/11/06 07:24:19;;;;;;;9.70;5.23;;;9.80;99.90;;;;;;5116921;28;20785;-70
2021/11/06 07:26:46;;;;;;;8.00;5.63;;;9.80;99.90;;;;;;5117062;28;20843;-70
2021/11/06 07:29:13;;;;;;;7.80;5.03;;;9.80;99.90;;;;;;5116487;27;20835;-69
2021/11/06 07:31:41;;;;;;;9.70;5.33;;;9.80;99.90;;;;;;5116727;27;20488;-69
2021/11/06 07:34:08;;;;;;;6.37;4.67;;;9.80;99.90;;;;;;5116420;28;20466;-69
2021/11/06 07:36:35;;;;;;;8.63;4.77;;;9.80;99.90;;;;;;5116822;28;20751;-68
2021/11/06 07:39:01;;;;;;;9.80;5.00;;;9.80;99.90;;;;;;5116664;28;20524;-68
2021/11/06 07:41:28;;;;;;;9.33;4.93;;;9.80;99.90;;;;;;5116985;28;20779;-69
2021/11/06 07:43:55;;;;;;;7.83;4.73;;;9.80;99.90;;;;;;5116640;28;20452;-69
2021/11/06 07:46:21;;;;;;;8.00;4.50;;;9.80;99.90;;;;;;5116446;28;20831;-67
2021/11/06 07:48:50;;;;;;;7.50;5.40;;;9.80;99.90;;;;;;5116501;28;20469;-70
2021/11/06 07:51:17;;;;;;;10.43;5.40;;;9.80;99.90;;;;;;5116369;28;20479;-69
2021/11/06 07:53:44;;;;;;;6.67;4.90;;;9.80;99.90;;;;;;5116455;27;20520;-68
2021/11/06 07:56:11;;;;;;;7.10;5.47;;;9.80;99.90;;;;;;5116046;27;20457;-69
2021/11/06 07:58:38;;;;;;;9.53;4.90;;;9.80;99.90;;;;;;5116275;28;20842;-69
2021/11/06 08:01:07;;;;;;;8.77;5.30;;;9.80;99.90;;;;;;5116065;28;20812;-70
2021/11/06 08:03:34;;;;;;;8.50;5.13;;;9.80;99.90;;;;;;5116050;28;20463;-68
2021/11/06 08:06:04;;;;;;;7.57;4.70;;;9.80;99.90;;;;;;5115825;28;20478;-68
2021/11/06 08:08:34;;;;;;;14.73;5.17;;;9.70;99.90;;;;;;5115890;28;20453;-68
2021/11/06 08:11:01;;;;;;;7.83;4.13;;;9.80;99.90;;;;;;5115783;28;20477;-68
2021/11/06 08:13:29;;;;;;;7.23;4.97;;;9.80;99.90;;;;;;5115843;28;20847;-69
2021/11/06 08:15:56;;;;;;;6.50;4.43;;;9.80;99.90;;;;;;5115939;28;20471;-69
2021/11/06 08:18:23;;;;;;;5.60;5.00;;;9.80;99.90;;;;;;5115595;28;20495;-68
2021/11/06 08:20:50;;;;;;;9.53;4.70;;;9.80;99.90;;;;;;5115534;27;20520;-68
2021/11/06 08:23:18;;;;;;;10.17;4.67;;;9.80;99.90;;;;;;5115747;28;20489;-69
2021/11/06 08:25:48;;;;;;;5.30;4.80;;;9.80;99.90;;;;;;5115314;28;20779;-68
2021/11/06 08:28:15;;;;;;;9.83;5.10;;;9.90;99.90;;;;;;5115493;28;20468;-68
2021/11/06 08:30:42;;;;;;;9.17;4.67;;;9.90;99.90;;;;;;5115203;28;20513;-68
2021/11/06 08:33:10;;;;;;;7.97;5.13;;;9.90;99.90;;;;;;5115572;28;20803;-67
2021/11/06 08:35:37;;;;;;;10.00;4.90;;;9.90;99.90;;;;;;5115703;28;20788;-69
2021/11/06 08:38:05;;;;;;;7.23;4.37;;;9.90;99.90;;;;;;5115115;28;20469;-69
2021/11/06 08:40:33;;;;;;;6.97;5.33;;;10.00;99.90;;;;;;5115611;28;20455;-68
2021/11/06 08:43:00;;;;;;;4.70;4.20;;;10.10;99.90;;;;;;5115766;28;20456;-68
2021/11/06 08:45:27;;;;;;;8.10;4.87;;;10.20;99.90;;;;;;5114784;28;20894;-69
2021/11/06 08:47:54;;;;;;;6.13;5.00;;;10.20;99.90;;;;;;5115271;28;20996;-68
2021/11/06 08:50:22;;;;;;;7.23;5.90;;;10.20;99.90;;;;;;5115396;28;20782;-68
2021/11/06 08:52:50;;;;;;;7.60;5.53;;;10.20;99.90;;;;;;5115276;28;20461;-68
2021/11/06 08:55:17;;;;;;;8.87;5.30;;;10.20;99.90;;;;;;5115452;28;20468;-68
2021/11/06 08:57:45;;;;;;;8.53;5.60;;;10.30;99.90;;;;;;5115388;28;20457;-68
2021/11/06 09:00:15;;;;;;;8.80;5.80;;;10.30;99.90;;;;;;5115168;28;20467;-69
2021/11/06 09:02:42;;;;;;;9.37;5.40;;;10.40;99.90;;;;;;5115193;28;20548;-68
2021/11/06 09:05:10;;;;;;;9.43;4.50;;;10.30;99.90;;;;;;5114371;28;20441;-68
2021/11/06 09:07:36;;;;;;;8.80;5.37;;;10.20;99.90;;;;;;5114669;28;20452;-69
2021/11/06 09:10:05;;;;;;;8.07;5.27;;;10.20;99.90;;;;;;5114720;28;20460;-69
2021/11/06 09:12:34;;;;;;;8.00;5.50;;;10.30;99.90;;;;;;5115025;28;20538;-69
2021/11/06 09:15:02;;;;;;;6.63;5.10;;;10.30;99.90;;;;;;5114804;28;20466;-69
2021/11/06 09:17:29;;;;;;;5.67;4.80;;;10.30;99.90;;;;;;5114917;28;20522;-69
2021/11/06 09:19:56;;;;;;;6.70;5.00;;;10.30;99.90;;;;;;5115517;28;20467;-69
2021/11/06 09:22:24;;;;;;;7.60;5.93;;;10.30;99.90;;;;;;5114516;28;20449;-69
2021/11/06 09:24:52;;;;;;;5.93;5.30;;;10.40;99.90;;;;;;5114865;28;20449;-69
2021/11/06 09:27:18;;;;;;;7.50;5.30;;;10.30;99.90;;;;;;5114920;28;20515;-69
2021/11/06 09:29:46;;;;;;;10.17;5.90;;;10.40;99.90;;;;;;5114643;28;20462;-69
2021/11/06 09:32:14;;;;;;;7.13;6.17;;;10.40;99.90;;;;;;5114856;28;20492;-69
2021/11/06 09:34:41;;;;;;;13.63;6.40;;;10.40;99.90;;;;;;5114624;28;20464;-69
2021/11/06 09:37:10;;;;;;;10.20;5.90;;;10.40;99.90;;;;;;5114430;28;20542;-69
2021/11/06 09:39:38;;;;;;;9.47;6.60;;;10.40;99.90;;;;;;5114141;28;20461;-69
2021/11/06 09:42:06;;;;;;;8.93;6.60;;;10.40;99.90;;;;;;5114309;28;20920;-69
2021/11/06 09:44:34;;;;;;;8.73;5.80;;;10.40;99.90;;;;;;5114514;28;20474;-69
2021/11/06 09:47:05;;;;;;;7.33;5.80;;;10.50;99.90;;;;;;5114891;28;20528;-69
2021/11/06 09:49:33;;;;;;;9.67;6.53;;;10.50;99.90;;;;;;5115648;28;20441;-69
2021/11/06 09:51:59;;;;;;;8.90;7.13;;;10.50;99.90;;;;;;5114416;28;20847;-69
2021/11/06 09:54:26;;;;;;;7.63;6.83;;;10.60;99.90;;;;;;5115234;28;20525;-69
2021/11/06 09:56:53;;;;;;;9.37;6.27;;;10.70;99.90;;;;;;5115003;28;20460;-70
2021/11/06 09:59:20;;;;;;;7.37;6.67;;;10.80;99.90;;;;;;5114694;28;20474;-69
2021/11/06 10:01:46;;;;;;;7.23;6.53;;;10.80;99.90;;;;;;5114444;28;20455;-70
2021/11/06 10:04:13;;;;;;;8.70;7.43;;;10.80;99.90;;;;;;5114563;28;20792;-71
2021/11/06 10:06:45;;;;;;;11.40;7.20;;;10.90;99.90;;;;;;5113816;28;20525;-70
2021/11/06 10:09:13;;;;;;;7.70;6.90;;;11.00;99.90;;;;;;5114334;28;20874;-69
2021/11/06 10:11:44;;;;;;;8.43;6.00;;;11.00;99.90;;;;;;5114288;28;20487;-70
2021/11/06 10:14:15;;;;;;;10.70;6.00;;;11.10;99.90;;;;;;5114829;28;20481;-70
2021/11/06 10:16:44;;;;;;;7.67;6.07;;;11.10;99.90;;;;;;5114319;28;20456;-70
2021/11/06 10:19:14;;;;;;;6.53;5.90;;;11.10;99.90;;;;;;5116728;28;20455;-70
2021/11/06 10:21:44;;;;;;;8.60;5.83;;;11.20;99.90;;;;;;5117973;28;20459;-70
2021/11/06 10:24:11;;;;;;;8.80;5.50;;;11.20;99.90;;;;;;5118146;28;20470;-71
2021/11/06 10:26:39;;;;;;;7.10;5.40;;;11.20;99.90;;;;;;5118207;28;20460;-69
2021/11/06 10:29:09;;;;;;;10.13;5.30;;;11.20;99.90;;;;;;5117792;28;20792;-69
2021/11/06 10:32:02;;;;;;;8.20;5.50;;;11.30;99.90;;;;;;5117824;28;20477;-69
2021/11/06 10:34:37;;;;;;;9.87;5.53;;;11.30;99.90;;;;;;5118776;28;20501;-69
2021/11/06 10:37:12;;;;;;;9.47;6.13;;;11.40;99.90;;;;;;5117293;28;20882;-68
2021/11/06 10:39:54;;;;;;;7.20;5.50;;;11.50;99.90;;;;;;5117523;28;20458;-67
2021/11/06 10:42:21;;;;;;;9.57;5.37;;;11.60;99.90;;;;;;5117519;28;20494;-68
2021/11/06 10:44:48;;;;;;;5.80;5.20;;;11.60;99.90;;;;;;5117399;28;20539;-68
2021/11/06 10:47:15;;;;;;;8.83;5.80;;;11.70;99.90;;;;;;5117012;28;20461;-69
2021/11/06 10:49:47;;;;;;;7.60;4.77;;;11.70;99.90;;;;;;5117268;28;20467;-68
2021/11/06 10:52:18;;;;;;;5.80;5.00;;;11.80;99.90;;;;;;5117143;27;20560;-69
2021/11/06 10:55:01;;;;;;;5.87;4.03;;;11.90;99.90;;;;;;5117215;28;20470;-68
2021/11/06 10:57:28;;;;;;;6.87;4.30;;;11.90;99.90;;;;;;5117465;28;20463;-68
2021/11/06 11:00:11;;;;;;;9.50;5.00;;;12.00;99.90;;;;;;5117518;28;20910;-72
2021/11/06 11:02:39;;;;;;;5.00;4.40;;;12.10;99.90;;;;;;5117231;28;20439;-68
2021/11/06 11:05:06;;;;;;;5.13;4.67;;;12.20;99.90;;;;;;5116637;28;20459;-68
2021/11/06 11:07:34;;;;;;;6.00;3.60;;;12.30;99.90;;;;;;5118127;28;20440;-68
2021/11/06 11:10:20;;;;;;;5.10;4.30;;;12.40;99.90;;;;;;5117273;28;20463;-68
2021/11/06 11:13:08;;;;;;;7.40;4.80;;;12.40;99.90;;;;;;5116428;28;20476;-68
2021/11/06 11:15:34;;;;;;;6.00;4.80;;;12.30;99.90;;;;;;5117766;28;20539;-68
2021/11/06 11:18:01;;;;;;;6.63;4.37;;;12.10;99.90;;;;;;5117239;28;20849;-68
2021/11/06 11:20:30;;;;;;;5.90;4.23;;;12.00;99.90;;;;;;5116940;28;20453;-68
2021/11/06 11:23:13;;;;;;;12.43;5.03;;;12.00;99.90;;;;;;5116250;28;20977;-68
2021/11/06 11:25:41;;;;;;;6.17;4.50;;;11.90;99.90;;;;;;5116816;28;20446;-68
2021/11/06 11:28:09;;;;;;;5.13;4.33;;;11.80;99.90;;;;;;5116739;28;20453;-69
2021/11/06 11:30:36;;;;;;;7.50;5.07;;;11.70;99.90;;;;;;5116226;28;20547;-69
2021/11/06 11:33:03;;;;;;;4.60;4.17;;;11.60;99.90;;;;;;5115932;28;20494;-69
2021/11/06 11:35:30;;;;;;;10.10;4.10;;;11.50;99.90;;;;;;5116269;28;20456;-69
2021/11/06 11:37:58;;;;;;;5.47;4.30;;;11.50;99.90;;;;;;5116162;28;20477;-69
2021/11/06 11:40:29;;;;;;;7.73;4.60;;;11.50;99.90;;;;;;5116488;28;20456;-69
2021/11/06 11:43:06;;;;;;;6.90;4.77;;;11.50;99.90;;;;;;5116375;28;20488;-69
2021/11/06 11:45:40;;;;;;;7.23;4.20;;;11.50;99.90;;;;;;5116317;28;20438;-68
2021/11/06 11:48:11;;;;;;;6.63;4.60;;;11.50;99.90;;;;;;5116185;28;20452;-68
2021/11/06 11:50:41;;;;;;;6.57;5.60;;;11.50;99.90;;;;;;5116377;28;20893;-68
2021/11/06 11:53:12;;;;;;;6.40;4.17;;;11.50;99.90;;;;;;5116190;28;20477;-70
2021/11/06 11:55:44;;;;;;;5.30;4.07;;;11.50;99.90;;;;;;5116368;28;20442;-71
2021/11/06 11:58:15;;;;;;;4.20;3.80;;;11.60;99.90;;;;;;5116185;28;20533;-70
2021/11/06 12:00:50;;;;;;;5.27;4.27;;;11.60;99.90;;;;;;5116290;28;20437;-71
2021/11/06 12:03:33;;;;;;;6.83;3.60;;;11.50;99.90;;;;;;5116237;28;20454;-69
2021/11/06 12:06:00;;;;;;;3.87;3.57;;;11.60;99.90;;;;;;5115538;27;20509;-69
2021/11/06 12:08:35;;;;;;;5.67;4.03;;;11.60;99.90;;;;;;5115505;28;20454;-69
2021/11/06 12:11:18;;;;;;;5.27;3.67;;;11.70;99.90;;;;;;5116075;28;20495;-69
2021/11/06 12:13:50;;;;;;;5.17;3.60;;;11.80;99.90;;;;;;5115545;28;20802;-68
2021/11/06 12:16:19;;;;;;;5.73;3.77;;;11.90;99.90;;;;;;5115832;28;20445;-69
2021/11/06 12:19:01;;;;;;;5.33;3.73;;;11.90;99.90;;;;;;5115407;28;20914;-69
2021/11/06 12:21:32;;;;;;;4.67;3.47;;;12.00;99.90;;;;;;5115433;28;20442;-70
2021/11/06 12:24:19;;;;;;;3.30;3.10;;;12.00;99.90;;;;;;5115854;28;20842;-71
2021/11/06 12:26:49;;;;;;;4.13;3.83;;;12.20;99.90;;;;;;5115153;28;20448;-70
2021/11/06 12:29:29;;;;;;;6.30;3.40;;;12.20;99.90;;;;;;5114992;28;20457;-70
2021/11/06 12:31:57;;;;;;;5.73;3.60;;;12.10;99.90;;;;;;5115227;28;20911;-71
2021/11/06 12:34:34;;;;;;;6.40;4.47;;;12.00;99.90;;;;;;5115184;28;20463;-71
2021/11/06 12:37:02;;;;;;;4.30;3.97;;;12.10;99.90;;;;;;5115414;28;20445;-69
2021/11/06 12:39:47;;;;;;;10.47;4.20;;;12.00;99.90;;;;;;5115221;28;20454;-71
2021/11/06 12:42:17;;;;;;;4.50;3.37;;;12.00;99.90;;;;;;5113945;28;20460;-69
2021/11/06 12:44:49;;;;;;;6.03;3.37;;;11.90;99.90;;;;;;5115121;28;20455;-71
2021/11/06 12:47:16;;;;;;;5.53;3.77;;;11.80;99.90;;;;;;5114898;28;20454;-72
2021/11/06 12:49:43;;;;;;;3.97;3.37;;;11.80;99.90;;;;;;5114839;28;20549;-69
2021/11/06 12:52:12;;;;;;;4.73;3.40;;;11.80;99.90;;;;;;5114926;28;20487;-69
2021/11/06 12:54:39;;;;;;;4.07;3.20;;;11.90;99.90;;;;;;5114546;28;20613;-69